LFOH/LEH METAR and TAF weather

Enter ICAO airport designator
Station Type Date Time Source
LFOH METAR 2019/08/25 20:00 UTC NOAA

LFOH 252000Z AUTO 35008KT 9000 SCT004 18/17 Q1019


Station Type Date Time Source
LFOH Decoded METAR 2019/08/25 20:00 UTC NOAA

Station name not available
Aug 25, 2019 - 04:00 PM EDT / 2019.08.25 2000 UTC
Wind: from the N (350 degrees) at 9 MPH (8 KT):0
Visibility: 5 mile(s):0
Sky conditions: partly cloudy
Temperature: 64 F (18 C)
Dew Point: 62 F (17 C)
Relative Humidity: 93%
Pressure (altimeter): 30.09 in. Hg (1019 hPa)
ob: LFOH 252000Z AUTO 35008KT 9000 SCT004 18/17 Q1019
cycle: 20

Station Type Date Time Source
LFOH TAF 2019/08/25 17:59 UTC NOAA

TAF LFOH 251756Z 2517/2612 CNL

Example: see airport list